sensor_id;sensor_type;location;lat;lon;timestamp;P1;durP1;ratioP1;P2;durP2;ratioP2
53281;SDS011;39167;52.794;6.892;2023-05-10T00:01:23;9.80;;;7.90;;
53281;SDS011;39167;52.794;6.892;2023-05-10T00:03:49;9.48;;;8.20;;
53281;SDS011;39167;52.794;6.892;2023-05-10T00:06:14;9.68;;;8.68;;
53281;SDS011;39167;52.794;6.892;2023-05-10T00:08:40;10.63;;;8.10;;
53281;SDS011;39167;52.794;6.892;2023-05-10T00:11:06;11.40;;;8.63;;
53281;SDS011;39167;52.794;6.892;2023-05-10T00:13:31;10.32;;;9.07;;
53281;SDS011;39167;52.794;6.892;2023-05-10T00:15:57;11.35;;;9.70;;
53281;SDS011;39167;52.794;6.892;2023-05-10T00:18:23;11.10;;;9.18;;
53281;SDS011;39167;52.794;6.892;2023-05-10T00:20:49;9.77;;;8.70;;
53281;SDS011;39167;52.794;6.892;2023-05-10T00:23:15;14.63;;;10.05;;
53281;SDS011;39167;52.794;6.892;2023-05-10T00:25:40;10.05;;;8.98;;
53281;SDS011;39167;52.794;6.892;2023-05-10T00:28:06;12.07;;;9.73;;
53281;SDS011;39167;52.794;6.892;2023-05-10T00:30:32;12.48;;;9.50;;
53281;SDS011;39167;52.794;6.892;2023-05-10T00:32:58;10.35;;;9.20;;
53281;SDS011;39167;52.794;6.892;2023-05-10T00:35:23;10.88;;;8.27;;
53281;SDS011;39167;52.794;6.892;2023-05-10T00:37:49;10.43;;;8.88;;
53281;SDS011;39167;52.794;6.892;2023-05-10T00:40:15;10.38;;;8.93;;
53281;SDS011;39167;52.794;6.892;2023-05-10T00:42:41;10.05;;;8.82;;
53281;SDS011;39167;52.794;6.892;2023-05-10T00:45:07;9.10;;;8.05;;
53281;SDS011;39167;52.794;6.892;2023-05-10T00:47:33;10.73;;;7.95;;
53281;SDS011;39167;52.794;6.892;2023-05-10T00:53:41;8.82;;;7.38;;
53281;SDS011;39167;52.794;6.892;2023-05-10T00:56:07;10.27;;;7.50;;
53281;SDS011;39167;52.794;6.892;2023-05-10T00:58:33;9.65;;;7.82;;
53281;SDS011;39167;52.794;6.892;2023-05-10T01:00:59;10.15;;;6.97;;
53281;SDS011;39167;52.794;6.892;2023-05-10T01:03:26;11.07;;;7.93;;
53281;SDS011;39167;52.794;6.892;2023-05-10T01:05:53;8.48;;;7.25;;
53281;SDS011;39167;52.794;6.892;2023-05-10T01:08:19;9.00;;;7.45;;
53281;SDS011;39167;52.794;6.892;2023-05-10T01:10:45;12.20;;;8.52;;
53281;SDS011;39167;52.794;6.892;2023-05-10T01:13:11;9.02;;;7.47;;
53281;SDS011;39167;52.794;6.892;2023-05-10T01:15:37;11.73;;;8.25;;
53281;SDS011;39167;52.794;6.892;2023-05-10T01:18:04;9.95;;;8.70;;
53281;SDS011;39167;52.794;6.892;2023-05-10T01:20:32;9.85;;;8.45;;
53281;SDS011;39167;52.794;6.892;2023-05-10T01:23:07;11.90;;;8.68;;
53281;SDS011;39167;52.794;6.892;2023-05-10T01:28:55;11.00;;;9.30;;
53281;SDS011;39167;52.794;6.892;2023-05-10T01:34:09;12.77;;;9.23;;
53281;SDS011;39167;52.794;6.892;2023-05-10T01:44:39;12.48;;;8.55;;
53281;SDS011;39167;52.794;6.892;2023-05-10T01:47:10;12.55;;;8.98;;
53281;SDS011;39167;52.794;6.892;2023-05-10T01:49:49;10.70;;;8.82;;
53281;SDS011;39167;52.794;6.892;2023-05-10T01:52:18;10.93;;;8.93;;
53281;SDS011;39167;52.794;6.892;2023-05-10T01:54:54;12.20;;;9.10;;
53281;SDS011;39167;52.794;6.892;2023-05-10T01:57:25;10.70;;;8.68;;
53281;SDS011;39167;52.794;6.892;2023-05-10T01:59:53;10.93;;;9.27;;
53281;SDS011;39167;52.794;6.892;2023-05-10T02:02:20;11.27;;;8.73;;
53281;SDS011;39167;52.794;6.892;2023-05-10T02:04:49;10.75;;;8.25;;
53281;SDS011;39167;52.794;6.892;2023-05-10T02:07:16;12.85;;;9.15;;
53281;SDS011;39167;52.794;6.892;2023-05-10T02:09:43;13.00;;;9.93;;
53281;SDS011;39167;52.794;6.892;2023-05-10T02:12:13;11.80;;;8.90;;
53281;SDS011;39167;52.794;6.892;2023-05-10T02:14:40;12.73;;;9.05;;
53281;SDS011;39167;52.794;6.892;2023-05-10T02:17:07;10.88;;;7.65;;
53281;SDS011;39167;52.794;6.892;2023-05-10T02:19:35;9.38;;;7.53;;
53281;SDS011;39167;52.794;6.892;2023-05-10T02:22:04;10.80;;;8.38;;
53281;SDS011;39167;52.794;6.892;2023-05-10T02:24:31;11.23;;;8.07;;
53281;SDS011;39167;52.794;6.892;2023-05-10T02:26:59;10.13;;;7.88;;
53281;SDS011;39167;52.794;6.892;2023-05-10T02:29:27;9.77;;;7.00;;
53281;SDS011;39167;52.794;6.892;2023-05-10T02:31:54;11.10;;;7.47;;
53281;SDS011;39167;52.794;6.892;2023-05-10T02:34:22;10.38;;;7.80;;
53281;SDS011;39167;52.794;6.892;2023-05-10T02:36:49;10.30;;;7.57;;
53281;SDS011;39167;52.794;6.892;2023-05-10T02:39:17;10.65;;;7.93;;
53281;SDS011;39167;52.794;6.892;2023-05-10T02:41:44;10.18;;;7.18;;
53281;SDS011;39167;52.794;6.892;2023-05-10T02:44:15;9.02;;;7.18;;
53281;SDS011;39167;52.794;6.892;2023-05-10T02:46:43;9.93;;;7.03;;
53281;SDS011;39167;52.794;6.892;2023-05-10T02:49:10;9.02;;;7.13;;
53281;SDS011;39167;52.794;6.892;2023-05-10T02:51:36;9.90;;;6.97;;
53281;SDS011;39167;52.794;6.892;2023-05-10T02:54:18;10.23;;;7.77;;
53281;SDS011;39167;52.794;6.892;2023-05-10T02:56:47;8.98;;;6.93;;
53281;SDS011;39167;52.794;6.892;2023-05-10T02:59:17;9.37;;;7.10;;
53281;SDS011;39167;52.794;6.892;2023-05-10T03:01:43;10.82;;;7.55;;
53281;SDS011;39167;52.794;6.892;2023-05-10T03:04:09;8.70;;;6.75;;
53281;SDS011;39167;52.794;6.892;2023-05-10T03:06:35;9.25;;;7.18;;
53281;SDS011;39167;52.794;6.892;2023-05-10T03:09:01;8.68;;;6.80;;
53281;SDS011;39167;52.794;6.892;2023-05-10T03:11:31;9.32;;;6.60;;
53281;SDS011;39167;52.794;6.892;2023-05-10T03:16:55;9.30;;;7.22;;
53281;SDS011;39167;52.794;6.892;2023-05-10T03:19:40;8.60;;;6.65;;
53281;SDS011;39167;52.794;6.892;2023-05-10T03:22:17;9.65;;;7.40;;
53281;SDS011;39167;52.794;6.892;2023-05-10T03:24:53;9.38;;;6.72;;
53281;SDS011;39167;52.794;6.892;2023-05-10T03:27:22;10.27;;;6.63;;
53281;SDS011;39167;52.794;6.892;2023-05-10T03:29:50;12.50;;;7.32;;
53281;SDS011;39167;52.794;6.892;2023-05-10T03:32:17;10.50;;;6.82;;
53281;SDS011;39167;52.794;6.892;2023-05-10T03:34:43;9.02;;;6.15;;
53281;SDS011;39167;52.794;6.892;2023-05-10T03:37:09;9.40;;;6.25;;
53281;SDS011;39167;52.794;6.892;2023-05-10T03:39:35;9.63;;;7.30;;
53281;SDS011;39167;52.794;6.892;2023-05-10T03:42:01;8.38;;;6.55;;
53281;SDS011;39167;52.794;6.892;2023-05-10T03:44:26;9.73;;;7.20;;
53281;SDS011;39167;52.794;6.892;2023-05-10T03:46:52;9.45;;;7.00;;
53281;SDS011;39167;52.794;6.892;2023-05-10T03:49:18;8.45;;;6.60;;
53281;SDS011;39167;52.794;6.892;2023-05-10T03:51:44;8.65;;;6.25;;
53281;SDS011;39167;52.794;6.892;2023-05-10T03:54:09;9.77;;;6.47;;
53281;SDS011;39167;52.794;6.892;2023-05-10T03:56:35;7.65;;;6.25;;
53281;SDS011;39167;52.794;6.892;2023-05-10T03:59:01;9.38;;;7.13;;
53281;SDS011;39167;52.794;6.892;2023-05-10T04:01:32;9.27;;;6.72;;
53281;SDS011;39167;52.794;6.892;2023-05-10T04:04:00;8.63;;;6.25;;
53281;SDS011;39167;52.794;6.892;2023-05-10T04:06:26;8.15;;;6.47;;
53281;SDS011;39167;52.794;6.892;2023-05-10T04:08:52;11.88;;;7.13;;
53281;SDS011;39167;52.794;6.892;2023-05-10T04:11:17;10.25;;;7.05;;
53281;SDS011;39167;52.794;6.892;2023-05-10T04:13:43;8.10;;;6.07;;
53281;SDS011;39167;52.794;6.892;2023-05-10T04:16:09;12.00;;;7.35;;
53281;SDS011;39167;52.794;6.892;2023-05-10T04:18:34;9.88;;;7.88;;
53281;SDS011;39167;52.794;6.892;2023-05-10T04:21:00;10.93;;;7.47;;
53281;SDS011;39167;52.794;6.892;2023-05-10T04:23:26;13.27;;;7.97;;
53281;SDS011;39167;52.794;6.892;2023-05-10T04:25:52;8.75;;;7.32;;
53281;SDS011;39167;52.794;6.892;2023-05-10T04:28:23;11.45;;;7.80;;
53281;SDS011;39167;52.794;6.892;2023-05-10T04:30:49;9.18;;;7.32;;
53281;SDS011;39167;52.794;6.892;2023-05-10T04:33:15;9.63;;;7.65;;
53281;SDS011;39167;52.794;6.892;2023-05-10T04:35:40;9.65;;;6.78;;
53281;SDS011;39167;52.794;6.892;2023-05-10T04:38:06;10.77;;;7.30;;
53281;SDS011;39167;52.794;6.892;2023-05-10T04:40:32;9.68;;;7.40;;
53281;SDS011;39167;52.794;6.892;2023-05-10T04:42:57;10.88;;;7.68;;
53281;SDS011;39167;52.794;6.892;2023-05-10T04:45:23;9.27;;;7.25;;
53281;SDS011;39167;52.794;6.892;2023-05-10T04:47:49;11.27;;;7.28;;
53281;SDS011;39167;52.794;6.892;2023-05-10T04:50:14;9.60;;;7.72;;
53281;SDS011;39167;52.794;6.892;2023-05-10T04:52:40;11.55;;;7.90;;
53281;SDS011;39167;52.794;6.892;2023-05-10T04:55:06;9.98;;;7.55;;
53281;SDS011;39167;52.794;6.892;2023-05-10T04:57:34;12.77;;;8.05;;
53281;SDS011;39167;52.794;6.892;2023-05-10T05:00:00;9.77;;;7.68;;
53281;SDS011;39167;52.794;6.892;2023-05-10T05:02:26;11.90;;;8.63;;
53281;SDS011;39167;52.794;6.892;2023-05-10T05:04:52;11.30;;;8.48;;
53281;SDS011;39167;52.794;6.892;2023-05-10T05:07:18;11.82;;;8.65;;
53281;SDS011;39167;52.794;6.892;2023-05-10T05:09:43;12.40;;;8.88;;
53281;SDS011;39167;52.794;6.892;2023-05-10T05:12:09;11.68;;;8.48;;
53281;SDS011;39167;52.794;6.892;2023-05-10T05:14:39;11.43;;;8.30;;
53281;SDS011;39167;52.794;6.892;2023-05-10T05:17:05;13.05;;;9.80;;
53281;SDS011;39167;52.794;6.892;2023-05-10T05:19:31;12.95;;;8.73;;
53281;SDS011;39167;52.794;6.892;2023-05-10T05:21:57;15.75;;;9.48;;
53281;SDS011;39167;52.794;6.892;2023-05-10T05:24:22;14.70;;;9.75;;
53281;SDS011;39167;52.794;6.892;2023-05-10T05:26:48;15.30;;;10.18;;
53281;SDS011;39167;52.794;6.892;2023-05-10T05:29:14;12.93;;;9.50;;
53281;SDS011;39167;52.794;6.892;2023-05-10T05:31:39;16.67;;;9.77;;
53281;SDS011;39167;52.794;6.892;2023-05-10T05:34:05;14.98;;;9.73;;
53281;SDS011;39167;52.794;6.892;2023-05-10T05:36:31;12.23;;;9.00;;
53281;SDS011;39167;52.794;6.892;2023-05-10T05:38:57;14.23;;;8.70;;
53281;SDS011;39167;52.794;6.892;2023-05-10T05:41:22;15.00;;;8.75;;
53281;SDS011;39167;52.794;6.892;2023-05-10T05:43:49;13.65;;;9.32;;
53281;SDS011;39167;52.794;6.892;2023-05-10T05:46:15;12.65;;;8.38;;
53281;SDS011;39167;52.794;6.892;2023-05-10T05:48:41;14.70;;;8.38;;
53281;SDS011;39167;52.794;6.892;2023-05-10T05:51:06;12.50;;;8.65;;
53281;SDS011;39167;52.794;6.892;2023-05-10T05:53:32;15.63;;;8.90;;
53281;SDS011;39167;52.794;6.892;2023-05-10T05:55:58;15.68;;;8.70;;
53281;SDS011;39167;52.794;6.892;2023-05-10T05:58:24;13.05;;;8.43;;
53281;SDS011;39167;52.794;6.892;2023-05-10T06:00:51;12.80;;;8.68;;
53281;SDS011;39167;52.794;6.892;2023-05-10T06:03:17;10.40;;;7.97;;
53281;SDS011;39167;52.794;6.892;2023-05-10T06:05:43;11.85;;;8.07;;
53281;SDS011;39167;52.794;6.892;2023-05-10T06:08:09;13.80;;;8.82;;
53281;SDS011;39167;52.794;6.892;2023-05-10T06:10:35;11.50;;;7.82;;
53281;SDS011;39167;52.794;6.892;2023-05-10T06:13:01;14.05;;;8.27;;
53281;SDS011;39167;52.794;6.892;2023-05-10T06:15:27;11.88;;;8.05;;
53281;SDS011;39167;52.794;6.892;2023-05-10T06:17:53;11.43;;;7.22;;
53281;SDS011;39167;52.794;6.892;2023-05-10T06:20:19;15.48;;;7.80;;
53281;SDS011;39167;52.794;6.892;2023-05-10T06:22:45;10.60;;;7.38;;
53281;SDS011;39167;52.794;6.892;2023-05-10T06:25:11;11.43;;;7.35;;
53281;SDS011;39167;52.794;6.892;2023-05-10T06:27:37;10.88;;;7.18;;
53281;SDS011;39167;52.794;6.892;2023-05-10T06:30:03;12.70;;;7.30;;
53281;SDS011;39167;52.794;6.892;2023-05-10T06:32:30;13.60;;;7.53;;
53281;SDS011;39167;52.794;6.892;2023-05-10T06:34:55;12.40;;;7.47;;
53281;SDS011;39167;52.794;6.892;2023-05-10T06:37:21;14.15;;;7.20;;
53281;SDS011;39167;52.794;6.892;2023-05-10T06:39:47;10.85;;;6.90;;
53281;SDS011;39167;52.794;6.892;2023-05-10T06:42:13;11.45;;;7.15;;
53281;SDS011;39167;52.794;6.892;2023-05-10T06:44:39;10.88;;;6.78;;
53281;SDS011;39167;52.794;6.892;2023-05-10T06:47:05;10.27;;;6.35;;
53281;SDS011;39167;52.794;6.892;2023-05-10T06:49:31;12.68;;;7.00;;
53281;SDS011;39167;52.794;6.892;2023-05-10T06:51:56;12.18;;;6.65;;
53281;SDS011;39167;52.794;6.892;2023-05-10T06:54:22;10.98;;;6.50;;
53281;SDS011;39167;52.794;6.892;2023-05-10T06:56:48;14.40;;;6.95;;
53281;SDS011;39167;52.794;6.892;2023-05-10T06:59:14;12.18;;;7.15;;
53281;SDS011;39167;52.794;6.892;2023-05-10T07:01:41;12.25;;;6.75;;
53281;SDS011;39167;52.794;6.892;2023-05-10T07:04:07;11.85;;;6.85;;
53281;SDS011;39167;52.794;6.892;2023-05-10T07:06:33;11.95;;;6.63;;
53281;SDS011;39167;52.794;6.892;2023-05-10T07:08:59;12.77;;;7.55;;
53281;SDS011;39167;52.794;6.892;2023-05-10T07:11:25;10.68;;;7.07;;
53281;SDS011;39167;52.794;6.892;2023-05-10T07:13:51;13.30;;;6.68;;
53281;SDS011;39167;52.794;6.892;2023-05-10T07:16:17;10.77;;;5.82;;
53281;SDS011;39167;52.794;6.892;2023-05-10T07:18:43;11.48;;;6.18;;
53281;SDS011;39167;52.794;6.892;2023-05-10T07:21:09;12.00;;;6.10;;
53281;SDS011;39167;52.794;6.892;2023-05-10T07:23:35;12.30;;;5.93;;
53281;SDS011;39167;52.794;6.892;2023-05-10T07:26:01;11.02;;;5.97;;
53281;SDS011;39167;52.794;6.892;2023-05-10T07:28:27;12.13;;;6.13;;
53281;SDS011;39167;52.794;6.892;2023-05-10T07:30:53;13.13;;;6.43;;
53281;SDS011;39167;52.794;6.892;2023-05-10T07:33:19;11.27;;;6.38;;
53281;SDS011;39167;52.794;6.892;2023-05-10T07:35:44;10.82;;;5.97;;
53281;SDS011;39167;52.794;6.892;2023-05-10T07:38:10;11.00;;;6.18;;
53281;SDS011;39167;52.794;6.892;2023-05-10T07:40:36;8.93;;;4.97;;
53281;SDS011;39167;52.794;6.892;2023-05-10T07:43:02;13.40;;;6.40;;
53281;SDS011;39167;52.794;6.892;2023-05-10T07:45:28;8.25;;;4.93;;
53281;SDS011;39167;52.794;6.892;2023-05-10T07:47:54;12.90;;;5.93;;
53281;SDS011;39167;52.794;6.892;2023-05-10T07:50:19;9.55;;;5.65;;
53281;SDS011;39167;52.794;6.892;2023-05-10T07:52:46;9.73;;;5.50;;
53281;SDS011;39167;52.794;6.892;2023-05-10T07:55:13;12.90;;;5.85;;
53281;SDS011;39167;52.794;6.892;2023-05-10T07:57:39;13.55;;;5.78;;
53281;SDS011;39167;52.794;6.892;2023-05-10T08:00:05;12.45;;;6.25;;
53281;SDS011;39167;52.794;6.892;2023-05-10T08:02:32;9.32;;;5.70;;
53281;SDS011;39167;52.794;6.892;2023-05-10T08:04:59;9.90;;;6.32;;
53281;SDS011;39167;52.794;6.892;2023-05-10T08:07:25;11.48;;;6.65;;
53281;SDS011;39167;52.794;6.892;2023-05-10T08:09:51;10.48;;;5.75;;
53281;SDS011;39167;52.794;6.892;2023-05-10T08:12:16;12.10;;;6.20;;
53281;SDS011;39167;52.794;6.892;2023-05-10T08:14:42;10.60;;;6.00;;
53281;SDS011;39167;52.794;6.892;2023-05-10T08:17:08;10.40;;;5.95;;
53281;SDS011;39167;52.794;6.892;2023-05-10T08:19:34;10.38;;;6.22;;
53281;SDS011;39167;52.794;6.892;2023-05-10T08:22:00;12.85;;;6.70;;
53281;SDS011;39167;52.794;6.892;2023-05-10T08:24:25;13.10;;;6.65;;
53281;SDS011;39167;52.794;6.892;2023-05-10T08:26:51;10.60;;;6.20;;
53281;SDS011;39167;52.794;6.892;2023-05-10T08:29:17;11.48;;;6.70;;
53281;SDS011;39167;52.794;6.892;2023-05-10T08:31:43;12.60;;;6.57;;
53281;SDS011;39167;52.794;6.892;2023-05-10T08:34:08;11.82;;;6.10;;
53281;SDS011;39167;52.794;6.892;2023-05-10T08:36:34;14.40;;;6.50;;
53281;SDS011;39167;52.794;6.892;2023-05-10T08:39:00;12.73;;;6.25;;
53281;SDS011;39167;52.794;6.892;2023-05-10T08:41:25;10.00;;;6.30;;
53281;SDS011;39167;52.794;6.892;2023-05-10T08:43:52;14.40;;;5.82;;
53281;SDS011;39167;52.794;6.892;2023-05-10T08:46:19;9.07;;;5.00;;
53281;SDS011;39167;52.794;6.892;2023-05-10T08:48:46;9.45;;;5.00;;
53281;SDS011;39167;52.794;6.892;2023-05-10T08:51:14;12.23;;;6.45;;
53281;SDS011;39167;52.794;6.892;2023-05-10T08:53:42;9.48;;;5.47;;
53281;SDS011;39167;52.794;6.892;2023-05-10T08:56:09;11.50;;;5.63;;
53281;SDS011;39167;52.794;6.892;2023-05-10T08:58:35;8.63;;;5.22;;
53281;SDS011;39167;52.794;6.892;2023-05-10T09:01:01;9.68;;;6.00;;
53281;SDS011;39167;52.794;6.892;2023-05-10T09:03:29;11.55;;;6.10;;
53281;SDS011;39167;52.794;6.892;2023-05-10T09:05:55;11.73;;;5.63;;
53281;SDS011;39167;52.794;6.892;2023-05-10T09:08:21;10.38;;;5.97;;
53281;SDS011;39167;52.794;6.892;2023-05-10T09:10:51;8.57;;;5.28;;
53281;SDS011;39167;52.794;6.892;2023-05-10T09:13:17;10.57;;;5.47;;
53281;SDS011;39167;52.794;6.892;2023-05-10T09:15:44;10.18;;;5.35;;
53281;SDS011;39167;52.794;6.892;2023-05-10T09:18:10;9.18;;;5.03;;
53281;SDS011;39167;52.794;6.892;2023-05-10T09:20:36;7.30;;;4.88;;
53281;SDS011;39167;52.794;6.892;2023-05-10T09:23:02;8.18;;;4.88;;
53281;SDS011;39167;52.794;6.892;2023-05-10T09:25:28;7.60;;;4.47;;
53281;SDS011;39167;52.794;6.892;2023-05-10T09:27:54;8.10;;;4.90;;
53281;SDS011;39167;52.794;6.892;2023-05-10T09:30:24;10.25;;;5.05;;
53281;SDS011;39167;52.794;6.892;2023-05-10T09:32:54;8.32;;;5.00;;
53281;SDS011;39167;52.794;6.892;2023-05-10T09:35:22;7.82;;;4.10;;
53281;SDS011;39167;52.794;6.892;2023-05-10T09:37:49;8.07;;;5.20;;
53281;SDS011;39167;52.794;6.892;2023-05-10T09:40:17;8.57;;;5.07;;
53281;SDS011;39167;52.794;6.892;2023-05-10T09:42:57;8.57;;;4.95;;
53281;SDS011;39167;52.794;6.892;2023-05-10T09:45:24;9.73;;;4.57;;
53281;SDS011;39167;52.794;6.892;2023-05-10T09:47:52;7.20;;;4.88;;
53281;SDS011;39167;52.794;6.892;2023-05-10T09:50:19;9.20;;;5.20;;
53281;SDS011;39167;52.794;6.892;2023-05-10T09:53:06;9.43;;;5.18;;
53281;SDS011;39167;52.794;6.892;2023-05-10T09:55:38;8.70;;;5.07;;
53281;SDS011;39167;52.794;6.892;2023-05-10T09:58:05;8.70;;;5.55;;
53281;SDS011;39167;52.794;6.892;2023-05-10T10:00:39;12.95;;;5.03;;
53281;SDS011;39167;52.794;6.892;2023-05-10T10:03:06;9.10;;;5.22;;
53281;SDS011;39167;52.794;6.892;2023-05-10T10:05:40;9.73;;;5.35;;
53281;SDS011;39167;52.794;6.892;2023-05-10T10:08:08;10.13;;;5.82;;
53281;SDS011;39167;52.794;6.892;2023-05-10T10:10:34;8.55;;;5.72;;
53281;SDS011;39167;52.794;6.892;2023-05-10T10:13:00;9.07;;;5.63;;
53281;SDS011;39167;52.794;6.892;2023-05-10T10:15:26;8.68;;;5.45;;
53281;SDS011;39167;52.794;6.892;2023-05-10T10:17:52;11.02;;;6.28;;
53281;SDS011;39167;52.794;6.892;2023-05-10T10:20:19;9.07;;;5.30;;
53281;SDS011;39167;52.794;6.892;2023-05-10T10:22:46;10.60;;;5.53;;
53281;SDS011;39167;52.794;6.892;2023-05-10T10:25:16;9.48;;;6.00;;
53281;SDS011;39167;52.794;6.892;2023-05-10T10:30:52;9.75;;;6.72;;
53281;SDS011;39167;52.794;6.892;2023-05-10T10:49:32;11.30;;;7.63;;
53281;SDS011;39167;52.794;6.892;2023-05-10T10:55:28;12.95;;;7.70;;
53281;SDS011;39167;52.794;6.892;2023-05-10T10:57:57;11.43;;;7.05;;
53281;SDS011;39167;52.794;6.892;2023-05-10T11:02:59;10.45;;;7.13;;
53281;SDS011;39167;52.794;6.892;2023-05-10T11:09:08;11.88;;;7.68;;
53281;SDS011;39167;52.794;6.892;2023-05-10T11:11:35;12.27;;;8.02;;
53281;SDS011;39167;52.794;6.892;2023-05-10T11:14:13;13.35;;;8.38;;
53281;SDS011;39167;52.794;6.892;2023-05-10T11:16:42;15.73;;;8.52;;
53281;SDS011;39167;52.794;6.892;2023-05-10T11:19:10;14.30;;;8.60;;
53281;SDS011;39167;52.794;6.892;2023-05-10T11:21:49;14.85;;;8.05;;
53281;SDS011;39167;52.794;6.892;2023-05-10T11:24:18;11.93;;;7.78;;
53281;SDS011;39167;52.794;6.892;2023-05-10T11:26:45;10.77;;;7.53;;
53281;SDS011;39167;52.794;6.892;2023-05-10T11:29:12;9.73;;;6.88;;
53281;SDS011;39167;52.794;6.892;2023-05-10T11:31:44;12.15;;;7.90;;
53281;SDS011;39167;52.794;6.892;2023-05-10T11:34:12;9.95;;;6.55;;
53281;SDS011;39167;52.794;6.892;2023-05-10T11:36:55;9.45;;;6.82;;
53281;SDS011;39167;52.794;6.892;2023-05-10T11:39:21;9.18;;;6.22;;
53281;SDS011;39167;52.794;6.892;2023-05-10T11:41:51;11.23;;;7.97;;
53281;SDS011;39167;52.794;6.892;2023-05-10T11:44:16;12.45;;;7.88;;
53281;SDS011;39167;52.794;6.892;2023-05-10T11:46:42;13.50;;;7.97;;
53281;SDS011;39167;52.794;6.892;2023-05-10T11:49:08;10.30;;;7.57;;
53281;SDS011;39167;52.794;6.892;2023-05-10T11:51:34;12.18;;;7.35;;
53281;SDS011;39167;52.794;6.892;2023-05-10T11:54:01;9.75;;;6.45;;
53281;SDS011;39167;52.794;6.892;2023-05-10T11:56:32;12.18;;;6.82;;
53281;SDS011;39167;52.794;6.892;2023-05-10T11:58:58;12.82;;;6.68;;
53281;SDS011;39167;52.794;6.892;2023-05-10T12:01:25;11.43;;;6.63;;
53281;SDS011;39167;52.794;6.892;2023-05-10T12:03:52;11.10;;;6.53;;
53281;SDS011;39167;52.794;6.892;2023-05-10T12:06:19;9.85;;;6.03;;
53281;SDS011;39167;52.794;6.892;2023-05-10T12:08:46;11.35;;;6.90;;
53281;SDS011;39167;52.794;6.892;2023-05-10T12:11:14;12.90;;;7.25;;
53281;SDS011;39167;52.794;6.892;2023-05-10T12:13:41;9.80;;;7.28;;
53281;SDS011;39167;52.794;6.892;2023-05-10T12:18:50;8.68;;;5.75;;
53281;SDS011;39167;52.794;6.892;2023-05-10T12:21:17;8.60;;;5.22;;
53281;SDS011;39167;52.794;6.892;2023-05-10T12:23:48;8.80;;;5.70;;
53281;SDS011;39167;52.794;6.892;2023-05-10T12:26:18;9.73;;;5.95;;
53281;SDS011;39167;52.794;6.892;2023-05-10T12:28:46;11.73;;;5.93;;
53281;SDS011;39167;52.794;6.892;2023-05-10T12:31:12;9.90;;;6.50;;
53281;SDS011;39167;52.794;6.892;2023-05-10T12:33:38;9.85;;;6.45;;
53281;SDS011;39167;52.794;6.892;2023-05-10T12:36:09;10.73;;;6.38;;
53281;SDS011;39167;52.794;6.892;2023-05-10T12:38:37;10.13;;;6.90;;
53281;SDS011;39167;52.794;6.892;2023-05-10T12:41:07;10.60;;;6.80;;
53281;SDS011;39167;52.794;6.892;2023-05-10T12:43:41;9.90;;;6.93;;
53281;SDS011;39167;52.794;6.892;2023-05-10T12:46:07;11.18;;;6.63;;
53281;SDS011;39167;52.794;6.892;2023-05-10T12:48:34;10.55;;;6.57;;
53281;SDS011;39167;52.794;6.892;2023-05-10T12:51:01;11.02;;;6.22;;
53281;SDS011;39167;52.794;6.892;2023-05-10T12:53:28;10.32;;;6.38;;
53281;SDS011;39167;52.794;6.892;2023-05-10T12:55:54;9.50;;;5.88;;
53281;SDS011;39167;52.794;6.892;2023-05-10T12:58:20;10.65;;;6.47;;
53281;SDS011;39167;52.794;6.892;2023-05-10T13:00:45;10.68;;;5.88;;
53281;SDS011;39167;52.794;6.892;2023-05-10T13:03:12;9.18;;;6.15;;
53281;SDS011;39167;52.794;6.892;2023-05-10T13:05:38;11.98;;;5.40;;
53281;SDS011;39167;52.794;6.892;2023-05-10T13:08:03;10.32;;;6.28;;
53281;SDS011;39167;52.794;6.892;2023-05-10T13:10:30;10.82;;;6.47;;
53281;SDS011;39167;52.794;6.892;2023-05-10T13:12:57;9.35;;;6.15;;
53281;SDS011;39167;52.794;6.892;2023-05-10T13:15:23;11.55;;;7.25;;
53281;SDS011;39167;52.794;6.892;2023-05-10T13:17:49;10.27;;;6.72;;
53281;SDS011;39167;52.794;6.892;2023-05-10T13:20:15;9.20;;;6.50;;
53281;SDS011;39167;52.794;6.892;2023-05-10T13:22:41;10.85;;;6.78;;
53281;SDS011;39167;52.794;6.892;2023-05-10T13:25:08;11.52;;;7.30;;
53281;SDS011;39167;52.794;6.892;2023-05-10T13:27:36;11.38;;;8.10;;
53281;SDS011;39167;52.794;6.892;2023-05-10T13:30:06;12.20;;;7.63;;
53281;SDS011;39167;52.794;6.892;2023-05-10T13:32:32;12.18;;;7.53;;
53281;SDS011;39167;52.794;6.892;2023-05-10T13:34:59;11.80;;;8.10;;
53281;SDS011;39167;52.794;6.892;2023-05-10T13:37:24;13.70;;;8.90;;
53281;SDS011;39167;52.794;6.892;2023-05-10T13:39:50;12.27;;;8.40;;
53281;SDS011;39167;52.794;6.892;2023-05-10T13:42:16;14.00;;;8.52;;
53281;SDS011;39167;52.794;6.892;2023-05-10T13:44:43;13.95;;;8.90;;
53281;SDS011;39167;52.794;6.892;2023-05-10T13:47:09;13.13;;;8.10;;
53281;SDS011;39167;52.794;6.892;2023-05-10T13:49:35;14.20;;;9.07;;
53281;SDS011;39167;52.794;6.892;2023-05-10T13:52:01;13.82;;;8.48;;
53281;SDS011;39167;52.794;6.892;2023-05-10T13:54:35;12.77;;;8.85;;
53281;SDS011;39167;52.794;6.892;2023-05-10T13:57:02;13.32;;;8.93;;
53281;SDS011;39167;52.794;6.892;2023-05-10T13:59:28;10.18;;;7.05;;
53281;SDS011;39167;52.794;6.892;2023-05-10T14:01:54;9.73;;;6.28;;
53281;SDS011;39167;52.794;6.892;2023-05-10T14:04:20;11.35;;;6.68;;
53281;SDS011;39167;52.794;6.892;2023-05-10T14:06:45;10.05;;;6.65;;
53281;SDS011;39167;52.794;6.892;2023-05-10T14:09:11;11.48;;;7.65;;
53281;SDS011;39167;52.794;6.892;2023-05-10T14:11:37;11.05;;;6.70;;
53281;SDS011;39167;52.794;6.892;2023-05-10T14:14:06;10.80;;;7.22;;
53281;SDS011;39167;52.794;6.892;2023-05-10T14:16:32;12.88;;;7.00;;
53281;SDS011;39167;52.794;6.892;2023-05-10T14:18:58;12.07;;;6.53;;
53281;SDS011;39167;52.794;6.892;2023-05-10T14:21:24;11.13;;;6.28;;
53281;SDS011;39167;52.794;6.892;2023-05-10T14:23:49;12.90;;;6.25;;
53281;SDS011;39167;52.794;6.892;2023-05-10T14:26:15;10.68;;;5.15;;
53281;SDS011;39167;52.794;6.892;2023-05-10T14:28:41;9.05;;;4.50;;
53281;SDS011;39167;52.794;6.892;2023-05-10T14:31:07;9.60;;;5.03;;
53281;SDS011;39167;52.794;6.892;2023-05-10T14:33:32;9.90;;;5.22;;
53281;SDS011;39167;52.794;6.892;2023-05-10T14:35:58;9.13;;;4.93;;
53281;SDS011;39167;52.794;6.892;2023-05-10T14:38:25;9.10;;;4.70;;
53281;SDS011;39167;52.794;6.892;2023-05-10T14:40:51;7.68;;;4.90;;
53281;SDS011;39167;52.794;6.892;2023-05-10T14:43:17;8.32;;;4.60;;
53281;SDS011;39167;52.794;6.892;2023-05-10T14:45:43;9.05;;;5.18;;
53281;SDS011;39167;52.794;6.892;2023-05-10T14:48:10;8.57;;;4.75;;
53281;SDS011;39167;52.794;6.892;2023-05-10T14:50:40;8.43;;;5.03;;
53281;SDS011;39167;52.794;6.892;2023-05-10T14:53:06;9.35;;;4.85;;
53281;SDS011;39167;52.794;6.892;2023-05-10T14:55:32;8.18;;;4.10;;
53281;SDS011;39167;52.794;6.892;2023-05-10T14:57:58;8.75;;;5.22;;
53281;SDS011;39167;52.794;6.892;2023-05-10T15:00:23;8.40;;;4.93;;
53281;SDS011;39167;52.794;6.892;2023-05-10T15:02:49;7.50;;;4.38;;
53281;SDS011;39167;52.794;6.892;2023-05-10T15:05:15;7.85;;;4.72;;
53281;SDS011;39167;52.794;6.892;2023-05-10T15:07:40;7.82;;;4.88;;
53281;SDS011;39167;52.794;6.892;2023-05-10T15:10:08;7.53;;;4.40;;
53281;SDS011;39167;52.794;6.892;2023-05-10T15:12:35;9.45;;;4.53;;
53281;SDS011;39167;52.794;6.892;2023-05-10T15:15:01;8.80;;;3.90;;
53281;SDS011;39167;52.794;6.892;2023-05-10T15:17:27;8.40;;;4.00;;
53281;SDS011;39167;52.794;6.892;2023-05-10T15:19:52;9.68;;;4.25;;
53281;SDS011;39167;52.794;6.892;2023-05-10T15:22:18;10.98;;;6.45;;
53281;SDS011;39167;52.794;6.892;2023-05-10T15:24:44;9.75;;;5.05;;
53281;SDS011;39167;52.794;6.892;2023-05-10T15:27:09;8.07;;;5.35;;
53281;SDS011;39167;52.794;6.892;2023-05-10T15:29:35;9.77;;;5.97;;